sensor_id;sensor_type;location;lat;lon;timestamp;P1;durP1;ratioP1;P2;durP2;ratioP2
77544;SDS011;66672;50.328;7.610;2023-05-17T00:02:01;6.25;;;1.95;;
77544;SDS011;66672;50.328;7.610;2023-05-17T00:04:27;7.90;;;2.10;;
77544;SDS011;66672;50.328;7.610;2023-05-17T00:06:52;7.93;;;3.10;;
77544;SDS011;66672;50.328;7.610;2023-05-17T00:09:17;10.82;;;2.00;;
77544;SDS011;66672;50.328;7.610;2023-05-17T00:11:43;7.70;;;2.63;;
77544;SDS011;66672;50.328;7.610;2023-05-17T00:14:08;6.68;;;1.92;;
77544;SDS011;66672;50.328;7.610;2023-05-17T00:16:33;5.57;;;1.88;;
77544;SDS011;66672;50.328;7.610;2023-05-17T00:18:58;7.22;;;2.33;;
77544;SDS011;66672;50.328;7.610;2023-05-17T00:21:23;4.38;;;2.05;;
77544;SDS011;66672;50.328;7.610;2023-05-17T00:23:49;5.53;;;2.05;;
77544;SDS011;66672;50.328;7.610;2023-05-17T00:26:14;7.78;;;2.45;;
77544;SDS011;66672;50.328;7.610;2023-05-17T00:28:39;5.63;;;2.00;;
77544;SDS011;66672;50.328;7.610;2023-05-17T00:31:04;5.00;;;1.98;;
77544;SDS011;66672;50.328;7.610;2023-05-17T00:33:29;6.95;;;2.30;;
77544;SDS011;66672;50.328;7.610;2023-05-17T00:35:55;6.63;;;2.08;;
77544;SDS011;66672;50.328;7.610;2023-05-17T00:38:20;7.63;;;2.75;;
77544;SDS011;66672;50.328;7.610;2023-05-17T00:40:46;7.30;;;2.00;;
77544;SDS011;66672;50.328;7.610;2023-05-17T00:43:11;6.05;;;2.50;;
77544;SDS011;66672;50.328;7.610;2023-05-17T00:45:36;7.93;;;2.95;;
77544;SDS011;66672;50.328;7.610;2023-05-17T00:48:01;5.03;;;2.63;;
77544;SDS011;66672;50.328;7.610;2023-05-17T00:50:26;5.95;;;2.30;;
77544;SDS011;66672;50.328;7.610;2023-05-17T00:52:52;5.68;;;2.10;;
77544;SDS011;66672;50.328;7.610;2023-05-17T00:55:17;4.38;;;2.10;;
77544;SDS011;66672;50.328;7.610;2023-05-17T00:57:45;6.32;;;2.05;;
77544;SDS011;66672;50.328;7.610;2023-05-17T01:00:10;5.28;;;2.28;;
77544;SDS011;66672;50.328;7.610;2023-05-17T01:02:36;9.32;;;2.05;;
77544;SDS011;66672;50.328;7.610;2023-05-17T01:05:01;5.53;;;1.90;;
77544;SDS011;66672;50.328;7.610;2023-05-17T01:07:26;6.30;;;2.13;;
77544;SDS011;66672;50.328;7.610;2023-05-17T01:09:52;6.03;;;1.73;;
77544;SDS011;66672;50.328;7.610;2023-05-17T01:12:28;6.40;;;1.95;;
77544;SDS011;66672;50.328;7.610;2023-05-17T01:15:07;9.60;;;1.90;;
77544;SDS011;66672;50.328;7.610;2023-05-17T01:20:32;4.95;;;1.67;;
77544;SDS011;66672;50.328;7.610;2023-05-17T01:25:27;5.44;;;2.04;;
77544;SDS011;66672;50.328;7.610;2023-05-17T01:27:53;4.60;;;1.75;;
77544;SDS011;66672;50.328;7.610;2023-05-17T01:30:19;6.38;;;1.90;;
77544;SDS011;66672;50.328;7.610;2023-05-17T01:32:44;5.88;;;1.77;;
77544;SDS011;66672;50.328;7.610;2023-05-17T01:35:10;5.18;;;1.80;;
77544;SDS011;66672;50.328;7.610;2023-05-17T01:37:36;5.90;;;2.10;;
77544;SDS011;66672;50.328;7.610;2023-05-17T01:40:01;4.65;;;1.80;;
77544;SDS011;66672;50.328;7.610;2023-05-17T01:42:28;3.35;;;1.52;;
77544;SDS011;66672;50.328;7.610;2023-05-17T01:44:57;7.82;;;1.95;;
77544;SDS011;66672;50.328;7.610;2023-05-17T01:47:29;9.55;;;2.22;;
77544;SDS011;66672;50.328;7.610;2023-05-17T01:49:56;6.20;;;2.38;;
77544;SDS011;66672;50.328;7.610;2023-05-17T01:55:41;4.55;;;2.05;;
77544;SDS011;66672;50.328;7.610;2023-05-17T01:57:58;8.38;;;2.88;;
77544;SDS011;66672;50.328;7.610;2023-05-17T02:00:25;7.13;;;2.00;;
77544;SDS011;66672;50.328;7.610;2023-05-17T02:02:52;7.03;;;2.10;;
77544;SDS011;66672;50.328;7.610;2023-05-17T02:05:17;8.43;;;1.70;;
77544;SDS011;66672;50.328;7.610;2023-05-17T02:07:43;6.25;;;2.03;;
77544;SDS011;66672;50.328;7.610;2023-05-17T02:10:08;4.43;;;2.08;;
77544;SDS011;66672;50.328;7.610;2023-05-17T02:12:33;8.85;;;2.42;;
77544;SDS011;66672;50.328;7.610;2023-05-17T02:14:58;7.18;;;2.05;;
77544;SDS011;66672;50.328;7.610;2023-05-17T02:17:24;8.52;;;1.85;;
77544;SDS011;66672;50.328;7.610;2023-05-17T02:19:49;4.60;;;1.73;;
77544;SDS011;66672;50.328;7.610;2023-05-17T02:22:14;6.20;;;2.22;;
77544;SDS011;66672;50.328;7.610;2023-05-17T02:24:39;10.88;;;2.40;;
77544;SDS011;66672;50.328;7.610;2023-05-17T02:27:05;7.30;;;2.13;;
77544;SDS011;66672;50.328;7.610;2023-05-17T02:29:30;9.50;;;2.10;;
77544;SDS011;66672;50.328;7.610;2023-05-17T02:31:55;6.57;;;1.98;;
77544;SDS011;66672;50.328;7.610;2023-05-17T02:34:21;8.35;;;2.17;;
77544;SDS011;66672;50.328;7.610;2023-05-17T02:36:46;3.80;;;1.70;;
77544;SDS011;66672;50.328;7.610;2023-05-17T02:39:12;7.72;;;2.20;;
77544;SDS011;66672;50.328;7.610;2023-05-17T02:41:37;5.30;;;2.15;;
77544;SDS011;66672;50.328;7.610;2023-05-17T02:44:02;4.15;;;1.90;;
77544;SDS011;66672;50.328;7.610;2023-05-17T02:46:28;5.45;;;1.70;;
77544;SDS011;66672;50.328;7.610;2023-05-17T02:48:53;10.15;;;2.60;;
77544;SDS011;66672;50.328;7.610;2023-05-17T02:51:18;8.80;;;1.90;;
77544;SDS011;66672;50.328;7.610;2023-05-17T02:53:43;5.90;;;2.30;;
77544;SDS011;66672;50.328;7.610;2023-05-17T02:56:08;6.22;;;2.00;;
77544;SDS011;66672;50.328;7.610;2023-05-17T02:58:34;5.22;;;2.20;;
77544;SDS011;66672;50.328;7.610;2023-05-17T03:00:59;5.45;;;1.73;;
77544;SDS011;66672;50.328;7.610;2023-05-17T03:03:25;8.88;;;2.08;;
77544;SDS011;66672;50.328;7.610;2023-05-17T03:05:50;10.13;;;2.25;;
77544;SDS011;66672;50.328;7.610;2023-05-17T03:08:15;7.25;;;2.28;;
77544;SDS011;66672;50.328;7.610;2023-05-17T03:10:40;8.25;;;2.85;;
77544;SDS011;66672;50.328;7.610;2023-05-17T03:13:06;7.55;;;2.00;;
77544;SDS011;66672;50.328;7.610;2023-05-17T03:15:31;4.75;;;1.80;;
77544;SDS011;66672;50.328;7.610;2023-05-17T03:17:56;6.78;;;2.08;;
77544;SDS011;66672;50.328;7.610;2023-05-17T03:20:21;6.95;;;2.08;;
77544;SDS011;66672;50.328;7.610;2023-05-17T03:22:47;7.20;;;1.98;;
77544;SDS011;66672;50.328;7.610;2023-05-17T03:25:12;6.78;;;2.20;;
77544;SDS011;66672;50.328;7.610;2023-05-17T03:27:37;6.55;;;2.35;;
77544;SDS011;66672;50.328;7.610;2023-05-17T03:30:02;8.52;;;2.50;;
77544;SDS011;66672;50.328;7.610;2023-05-17T03:32:27;3.55;;;2.30;;
77544;SDS011;66672;50.328;7.610;2023-05-17T03:34:53;4.80;;;2.08;;
77544;SDS011;66672;50.328;7.610;2023-05-17T03:37:18;4.05;;;1.90;;
77544;SDS011;66672;50.328;7.610;2023-05-17T03:39:43;6.22;;;2.10;;
77544;SDS011;66672;50.328;7.610;2023-05-17T03:42:08;4.15;;;1.85;;
77544;SDS011;66672;50.328;7.610;2023-05-17T03:44:34;6.35;;;2.45;;
77544;SDS011;66672;50.328;7.610;2023-05-17T03:46:59;7.15;;;2.20;;
77544;SDS011;66672;50.328;7.610;2023-05-17T03:49:24;6.25;;;2.05;;
77544;SDS011;66672;50.328;7.610;2023-05-17T03:51:49;8.50;;;2.30;;
77544;SDS011;66672;50.328;7.610;2023-05-17T03:54:14;5.45;;;2.10;;
77544;SDS011;66672;50.328;7.610;2023-05-17T03:56:40;5.07;;;2.03;;
77544;SDS011;66672;50.328;7.610;2023-05-17T03:59:07;5.18;;;2.25;;
77544;SDS011;66672;50.328;7.610;2023-05-17T04:01:32;6.47;;;2.08;;
77544;SDS011;66672;50.328;7.610;2023-05-17T04:03:57;7.68;;;2.30;;
77544;SDS011;66672;50.328;7.610;2023-05-17T04:06:25;6.68;;;2.75;;
77544;SDS011;66672;50.328;7.610;2023-05-17T04:08:50;4.20;;;2.20;;
77544;SDS011;66672;50.328;7.610;2023-05-17T04:11:17;6.90;;;2.05;;
77544;SDS011;66672;50.328;7.610;2023-05-17T04:13:47;5.45;;;2.38;;
77544;SDS011;66672;50.328;7.610;2023-05-17T04:16:12;5.75;;;2.30;;
77544;SDS011;66672;50.328;7.610;2023-05-17T04:18:37;8.82;;;2.75;;
77544;SDS011;66672;50.328;7.610;2023-05-17T04:21:03;9.80;;;3.00;;
77544;SDS011;66672;50.328;7.610;2023-05-17T04:23:29;8.32;;;3.67;;
77544;SDS011;66672;50.328;7.610;2023-05-17T04:25:54;11.18;;;2.95;;
77544;SDS011;66672;50.328;7.610;2023-05-17T04:28:20;7.65;;;2.33;;
77544;SDS011;66672;50.328;7.610;2023-05-17T04:30:46;7.57;;;2.42;;
77544;SDS011;66672;50.328;7.610;2023-05-17T04:33:11;7.30;;;2.78;;
77544;SDS011;66672;50.328;7.610;2023-05-17T04:35:37;6.93;;;2.85;;
77544;SDS011;66672;50.328;7.610;2023-05-17T04:38:03;7.78;;;2.75;;
77544;SDS011;66672;50.328;7.610;2023-05-17T04:40:28;5.97;;;3.03;;
77544;SDS011;66672;50.328;7.610;2023-05-17T04:42:53;8.77;;;3.22;;
77544;SDS011;66672;50.328;7.610;2023-05-17T04:45:18;7.45;;;3.78;;
77544;SDS011;66672;50.328;7.610;2023-05-17T04:47:43;7.07;;;2.83;;
77544;SDS011;66672;50.328;7.610;2023-05-17T04:50:09;6.65;;;2.83;;
77544;SDS011;66672;50.328;7.610;2023-05-17T04:52:35;9.25;;;3.25;;
77544;SDS011;66672;50.328;7.610;2023-05-17T04:55:00;11.05;;;3.67;;
77544;SDS011;66672;50.328;7.610;2023-05-17T04:57:26;7.75;;;3.72;;
77544;SDS011;66672;50.328;7.610;2023-05-17T04:59:51;12.15;;;4.45;;
77544;SDS011;66672;50.328;7.610;2023-05-17T05:02:16;7.53;;;3.00;;
77544;SDS011;66672;50.328;7.610;2023-05-17T05:04:41;6.55;;;3.03;;
77544;SDS011;66672;50.328;7.610;2023-05-17T05:07:08;9.70;;;3.67;;
77544;SDS011;66672;50.328;7.610;2023-05-17T05:09:33;8.90;;;3.70;;
77544;SDS011;66672;50.328;7.610;2023-05-17T05:11:58;9.73;;;4.60;;
77544;SDS011;66672;50.328;7.610;2023-05-17T05:14:23;5.32;;;3.30;;
77544;SDS011;66672;50.328;7.610;2023-05-17T05:16:48;8.77;;;3.90;;
77544;SDS011;66672;50.328;7.610;2023-05-17T05:19:13;9.02;;;3.83;;
77544;SDS011;66672;50.328;7.610;2023-05-17T05:21:39;10.70;;;4.22;;
77544;SDS011;66672;50.328;7.610;2023-05-17T05:24:04;7.00;;;3.30;;
77544;SDS011;66672;50.328;7.610;2023-05-17T05:26:29;9.65;;;4.07;;
77544;SDS011;66672;50.328;7.610;2023-05-17T05:28:54;9.75;;;4.00;;
77544;SDS011;66672;50.328;7.610;2023-05-17T05:31:19;9.00;;;4.40;;
77544;SDS011;66672;50.328;7.610;2023-05-17T05:33:45;13.20;;;5.65;;
77544;SDS011;66672;50.328;7.610;2023-05-17T05:36:10;10.02;;;4.75;;
77544;SDS011;66672;50.328;7.610;2023-05-17T05:38:35;10.68;;;4.70;;
77544;SDS011;66672;50.328;7.610;2023-05-17T05:41:01;10.85;;;4.70;;
77544;SDS011;66672;50.328;7.610;2023-05-17T05:43:26;8.35;;;4.65;;
77544;SDS011;66672;50.328;7.610;2023-05-17T05:45:51;13.18;;;5.00;;
77544;SDS011;66672;50.328;7.610;2023-05-17T05:48:16;12.30;;;5.28;;
77544;SDS011;66672;50.328;7.610;2023-05-17T05:50:42;13.75;;;5.65;;
77544;SDS011;66672;50.328;7.610;2023-05-17T05:53:08;8.40;;;4.90;;
77544;SDS011;66672;50.328;7.610;2023-05-17T05:55:33;13.13;;;5.28;;
77544;SDS011;66672;50.328;7.610;2023-05-17T05:57:58;13.98;;;6.00;;
77544;SDS011;66672;50.328;7.610;2023-05-17T06:00:23;14.25;;;6.53;;
77544;SDS011;66672;50.328;7.610;2023-05-17T06:02:49;16.35;;;5.95;;
77544;SDS011;66672;50.328;7.610;2023-05-17T06:05:15;14.75;;;5.80;;
77544;SDS011;66672;50.328;7.610;2023-05-17T06:07:40;11.57;;;5.35;;
77544;SDS011;66672;50.328;7.610;2023-05-17T06:10:05;14.80;;;7.07;;
77544;SDS011;66672;50.328;7.610;2023-05-17T06:12:31;13.70;;;6.70;;
77544;SDS011;66672;50.328;7.610;2023-05-17T06:14:56;15.25;;;6.72;;
77544;SDS011;66672;50.328;7.610;2023-05-17T06:17:21;14.90;;;7.05;;
77544;SDS011;66672;50.328;7.610;2023-05-17T06:19:46;14.98;;;7.35;;
77544;SDS011;66672;50.328;7.610;2023-05-17T06:22:13;16.70;;;7.78;;
77544;SDS011;66672;50.328;7.610;2023-05-17T06:24:38;16.48;;;7.20;;
77544;SDS011;66672;50.328;7.610;2023-05-17T06:27:03;17.00;;;7.95;;
77544;SDS011;66672;50.328;7.610;2023-05-17T06:29:29;20.58;;;9.95;;
77544;SDS011;66672;50.328;7.610;2023-05-17T06:31:54;21.98;;;9.02;;
77544;SDS011;66672;50.328;7.610;2023-05-17T06:34:20;18.25;;;9.38;;
77544;SDS011;66672;50.328;7.610;2023-05-17T06:36:45;16.88;;;8.05;;
77544;SDS011;66672;50.328;7.610;2023-05-17T06:39:11;17.08;;;7.85;;
77544;SDS011;66672;50.328;7.610;2023-05-17T06:41:36;17.15;;;8.85;;
77544;SDS011;66672;50.328;7.610;2023-05-17T06:44:01;17.15;;;8.90;;
77544;SDS011;66672;50.328;7.610;2023-05-17T06:46:26;17.13;;;9.25;;
77544;SDS011;66672;50.328;7.610;2023-05-17T06:48:52;19.63;;;8.73;;
77544;SDS011;66672;50.328;7.610;2023-05-17T06:51:17;21.08;;;8.75;;
77544;SDS011;66672;50.328;7.610;2023-05-17T06:53:42;15.68;;;7.78;;
77544;SDS011;66672;50.328;7.610;2023-05-17T06:56:07;18.10;;;9.15;;
77544;SDS011;66672;50.328;7.610;2023-05-17T06:58:32;21.92;;;9.13;;
77544;SDS011;66672;50.328;7.610;2023-05-17T07:00:59;21.60;;;9.20;;
77544;SDS011;66672;50.328;7.610;2023-05-17T07:03:24;18.05;;;9.30;;
77544;SDS011;66672;50.328;7.610;2023-05-17T07:05:50;19.85;;;10.02;;
77544;SDS011;66672;50.328;7.610;2023-05-17T07:08:15;16.67;;;8.80;;
77544;SDS011;66672;50.328;7.610;2023-05-17T07:10:40;24.05;;;10.00;;
77544;SDS011;66672;50.328;7.610;2023-05-17T07:13:05;18.20;;;9.00;;
77544;SDS011;66672;50.328;7.610;2023-05-17T07:15:31;19.90;;;9.82;;
77544;SDS011;66672;50.328;7.610;2023-05-17T07:17:56;18.98;;;9.52;;
77544;SDS011;66672;50.328;7.610;2023-05-17T07:20:23;19.00;;;9.13;;
77544;SDS011;66672;50.328;7.610;2023-05-17T07:22:48;16.92;;;8.63;;
77544;SDS011;66672;50.328;7.610;2023-05-17T07:25:13;20.70;;;9.82;;
77544;SDS011;66672;50.328;7.610;2023-05-17T07:27:39;19.50;;;9.85;;
77544;SDS011;66672;50.328;7.610;2023-05-17T07:30:05;20.65;;;10.43;;
77544;SDS011;66672;50.328;7.610;2023-05-17T07:32:31;21.15;;;9.70;;
77544;SDS011;66672;50.328;7.610;2023-05-17T07:34:56;20.65;;;10.60;;
77544;SDS011;66672;50.328;7.610;2023-05-17T07:37:21;20.33;;;9.75;;
77544;SDS011;66672;50.328;7.610;2023-05-17T07:39:46;26.48;;;11.43;;
77544;SDS011;66672;50.328;7.610;2023-05-17T07:42:11;23.73;;;11.02;;
77544;SDS011;66672;50.328;7.610;2023-05-17T07:44:37;26.42;;;10.75;;
77544;SDS011;66672;50.328;7.610;2023-05-17T07:47:02;21.60;;;11.02;;
77544;SDS011;66672;50.328;7.610;2023-05-17T07:49:29;22.10;;;10.55;;
77544;SDS011;66672;50.328;7.610;2023-05-17T07:51:54;23.35;;;11.00;;
77544;SDS011;66672;50.328;7.610;2023-05-17T07:54:22;20.40;;;9.30;;
77544;SDS011;66672;50.328;7.610;2023-05-17T07:56:48;21.08;;;10.13;;
77544;SDS011;66672;50.328;7.610;2023-05-17T07:59:13;22.65;;;9.60;;
77544;SDS011;66672;50.328;7.610;2023-05-17T08:01:39;21.27;;;9.35;;
77544;SDS011;66672;50.328;7.610;2023-05-17T08:04:04;19.83;;;9.20;;
77544;SDS011;66672;50.328;7.610;2023-05-17T08:06:29;20.65;;;9.65;;
77544;SDS011;66672;50.328;7.610;2023-05-17T08:08:54;23.90;;;9.75;;
77544;SDS011;66672;50.328;7.610;2023-05-17T08:11:19;25.90;;;9.85;;
77544;SDS011;66672;50.328;7.610;2023-05-17T08:13:44;21.75;;;10.65;;
77544;SDS011;66672;50.328;7.610;2023-05-17T08:16:10;22.25;;;10.10;;
77544;SDS011;66672;50.328;7.610;2023-05-17T08:18:36;20.63;;;10.23;;
77544;SDS011;66672;50.328;7.610;2023-05-17T08:21:01;21.30;;;9.93;;
77544;SDS011;66672;50.328;7.610;2023-05-17T08:23:27;40.15;;;14.23;;
77544;SDS011;66672;50.328;7.610;2023-05-17T08:25:52;20.83;;;9.00;;
77544;SDS011;66672;50.328;7.610;2023-05-17T08:28:17;17.42;;;7.75;;
77544;SDS011;66672;50.328;7.610;2023-05-17T08:30:42;17.50;;;7.88;;
77544;SDS011;66672;50.328;7.610;2023-05-17T08:33:10;15.68;;;7.50;;
77544;SDS011;66672;50.328;7.610;2023-05-17T08:35:36;14.32;;;6.97;;
77544;SDS011;66672;50.328;7.610;2023-05-17T08:38:01;20.80;;;7.72;;
77544;SDS011;66672;50.328;7.610;2023-05-17T08:40:26;16.23;;;7.60;;
77544;SDS011;66672;50.328;7.610;2023-05-17T08:42:51;17.73;;;7.75;;
77544;SDS011;66672;50.328;7.610;2023-05-17T08:45:16;20.75;;;9.00;;
77544;SDS011;66672;50.328;7.610;2023-05-17T08:47:42;18.08;;;9.13;;
77544;SDS011;66672;50.328;7.610;2023-05-17T08:50:08;15.05;;;8.57;;
77544;SDS011;66672;50.328;7.610;2023-05-17T08:52:35;18.70;;;8.05;;
77544;SDS011;66672;50.328;7.610;2023-05-17T08:55:01;18.35;;;7.63;;
77544;SDS011;66672;50.328;7.610;2023-05-17T08:57:29;17.83;;;8.18;;
77544;SDS011;66672;50.328;7.610;2023-05-17T08:59:55;14.07;;;7.20;;
77544;SDS011;66672;50.328;7.610;2023-05-17T09:02:21;18.55;;;8.55;;
77544;SDS011;66672;50.328;7.610;2023-05-17T09:04:47;19.55;;;8.38;;
77544;SDS011;66672;50.328;7.610;2023-05-17T09:07:14;18.83;;;8.10;;
77544;SDS011;66672;50.328;7.610;2023-05-17T09:09:39;15.10;;;8.20;;
77544;SDS011;66672;50.328;7.610;2023-05-17T09:12:04;18.77;;;7.15;;
77544;SDS011;66672;50.328;7.610;2023-05-17T09:14:33;16.15;;;7.22;;
77544;SDS011;66672;50.328;7.610;2023-05-17T09:17:00;13.82;;;6.15;;
77544;SDS011;66672;50.328;7.610;2023-05-17T09:19:26;13.35;;;5.60;;
77544;SDS011;66672;50.328;7.610;2023-05-17T09:21:54;14.38;;;6.07;;
77544;SDS011;66672;50.328;7.610;2023-05-17T09:24:26;10.65;;;5.40;;
77544;SDS011;66672;50.328;7.610;2023-05-17T09:26:51;15.60;;;6.05;;
77544;SDS011;66672;50.328;7.610;2023-05-17T09:29:16;15.77;;;6.30;;
77544;SDS011;66672;50.328;7.610;2023-05-17T09:31:42;12.00;;;5.43;;
77544;SDS011;66672;50.328;7.610;2023-05-17T09:34:07;12.75;;;5.13;;
77544;SDS011;66672;50.328;7.610;2023-05-17T09:36:34;11.63;;;4.60;;
77544;SDS011;66672;50.328;7.610;2023-05-17T09:39:03;10.55;;;4.43;;
77544;SDS011;66672;50.328;7.610;2023-05-17T09:41:41;16.08;;;6.65;;
77544;SDS011;66672;50.328;7.610;2023-05-17T09:44:10;13.10;;;4.47;;
77544;SDS011;66672;50.328;7.610;2023-05-17T09:46:36;8.85;;;4.10;;
77544;SDS011;66672;50.328;7.610;2023-05-17T09:49:03;12.07;;;4.72;;
77544;SDS011;66672;50.328;7.610;2023-05-17T09:51:32;10.80;;;4.28;;
77544;SDS011;66672;50.328;7.610;2023-05-17T09:53:57;8.55;;;4.18;;
77544;SDS011;66672;50.328;7.610;2023-05-17T09:56:23;8.48;;;4.38;;
77544;SDS011;66672;50.328;7.610;2023-05-17T09:58:51;11.77;;;4.53;;
77544;SDS011;66672;50.328;7.610;2023-05-17T10:01:16;9.35;;;3.72;;
77544;SDS011;66672;50.328;7.610;2023-05-17T10:03:41;9.48;;;3.70;;
77544;SDS011;66672;50.328;7.610;2023-05-17T10:06:07;10.57;;;4.00;;
77544;SDS011;66672;50.328;7.610;2023-05-17T10:08:33;10.82;;;4.10;;
77544;SDS011;66672;50.328;7.610;2023-05-17T10:11:04;12.07;;;3.80;;
77544;SDS011;66672;50.328;7.610;2023-05-17T10:13:48;6.55;;;3.30;;
77544;SDS011;66672;50.328;7.610;2023-05-17T10:16:15;8.88;;;3.00;;
77544;SDS011;66672;50.328;7.610;2023-05-17T10:18:41;9.48;;;2.92;;
77544;SDS011;66672;50.328;7.610;2023-05-17T10:21:07;5.88;;;2.33;;
77544;SDS011;66672;50.328;7.610;2023-05-17T10:23:32;6.10;;;2.40;;
77544;SDS011;66672;50.328;7.610;2023-05-17T10:25:58;9.30;;;2.15;;
77544;SDS011;66672;50.328;7.610;2023-05-17T10:28:23;8.13;;;2.28;;
77544;SDS011;66672;50.328;7.610;2023-05-17T10:30:50;9.02;;;2.47;;
77544;SDS011;66672;50.328;7.610;2023-05-17T10:33:16;6.15;;;2.10;;
77544;SDS011;66672;50.328;7.610;2023-05-17T10:35:42;9.90;;;3.25;;
77544;SDS011;66672;50.328;7.610;2023-05-17T10:38:07;7.38;;;3.33;;
77544;SDS011;66672;50.328;7.610;2023-05-17T10:40:33;10.63;;;3.95;;
77544;SDS011;66672;50.328;7.610;2023-05-17T10:43:00;9.40;;;3.45;;
77544;SDS011;66672;50.328;7.610;2023-05-17T10:45:26;10.15;;;3.20;;
77544;SDS011;66672;50.328;7.610;2023-05-17T10:47:52;8.30;;;2.15;;
77544;SDS011;66672;50.328;7.610;2023-05-17T10:50:21;6.68;;;2.30;;
77544;SDS011;66672;50.328;7.610;2023-05-17T10:52:47;5.57;;;2.00;;
77544;SDS011;66672;50.328;7.610;2023-05-17T10:55:13;8.32;;;1.52;;
77544;SDS011;66672;50.328;7.610;2023-05-17T10:57:41;5.07;;;1.52;;
77544;SDS011;66672;50.328;7.610;2023-05-17T11:00:07;6.80;;;1.77;;
77544;SDS011;66672;50.328;7.610;2023-05-17T11:02:38;6.35;;;1.65;;
77544;SDS011;66672;50.328;7.610;2023-05-17T11:05:04;8.88;;;2.30;;
77544;SDS011;66672;50.328;7.610;2023-05-17T11:07:29;5.22;;;1.38;;
77544;SDS011;66672;50.328;7.610;2023-05-17T11:14:53;6.75;;;1.90;;
77544;SDS011;66672;50.328;7.610;2023-05-17T11:17:24;5.10;;;1.70;;
77544;SDS011;66672;50.328;7.610;2023-05-17T11:22:21;6.95;;;1.80;;
77544;SDS011;66672;50.328;7.610;2023-05-17T11:24:46;5.47;;;1.63;;
77544;SDS011;66672;50.328;7.610;2023-05-17T11:27:14;6.75;;;2.25;;
77544;SDS011;66672;50.328;7.610;2023-05-17T11:29:42;10.07;;;2.03;;
77544;SDS011;66672;50.328;7.610;2023-05-17T11:32:10;6.60;;;2.17;;
77544;SDS011;66672;50.328;7.610;2023-05-17T11:34:36;6.38;;;1.92;;
77544;SDS011;66672;50.328;7.610;2023-05-17T11:37:01;5.55;;;2.22;;
77544;SDS011;66672;50.328;7.610;2023-05-17T11:39:28;5.32;;;1.60;;
77544;SDS011;66672;50.328;7.610;2023-05-17T11:41:54;9.52;;;2.20;;
77544;SDS011;66672;50.328;7.610;2023-05-17T11:44:23;8.63;;;2.47;;
77544;SDS011;66672;50.328;7.610;2023-05-17T11:46:49;9.60;;;2.63;;
77544;SDS011;66672;50.328;7.610;2023-05-17T11:49:14;8.40;;;2.10;;
77544;SDS011;66672;50.328;7.610;2023-05-17T11:51:40;7.80;;;1.63;;
77544;SDS011;66672;50.328;7.610;2023-05-17T11:54:05;8.13;;;2.10;;
77544;SDS011;66672;50.328;7.610;2023-05-17T11:56:34;6.65;;;2.30;;
77544;SDS011;66672;50.328;7.610;2023-05-17T11:59:00;5.38;;;2.28;;
77544;SDS011;66672;50.328;7.610;2023-05-17T12:01:26;5.80;;;1.90;;
77544;SDS011;66672;50.328;7.610;2023-05-17T12:03:54;7.00;;;2.35;;
77544;SDS011;66672;50.328;7.610;2023-05-17T12:06:20;6.18;;;1.48;;
77544;SDS011;66672;50.328;7.610;2023-05-17T12:08:45;7.75;;;1.90;;
77544;SDS011;66672;50.328;7.610;2023-05-17T12:11:14;5.93;;;1.83;;
77544;SDS011;66672;50.328;7.610;2023-05-17T12:13:39;5.90;;;1.80;;
77544;SDS011;66672;50.328;7.610;2023-05-17T12:16:07;5.82;;;2.10;;
77544;SDS011;66672;50.328;7.610;2023-05-17T12:18:34;9.27;;;1.88;;
77544;SDS011;66672;50.328;7.610;2023-05-17T12:21:00;6.82;;;1.75;;
77544;SDS011;66672;50.328;7.610;2023-05-17T12:23:27;7.93;;;2.30;;
77544;SDS011;66672;50.328;7.610;2023-05-17T12:26:00;5.15;;;1.63;;
77544;SDS011;66672;50.328;7.610;2023-05-17T12:28:25;8.77;;;1.95;;
77544;SDS011;66672;50.328;7.610;2023-05-17T12:30:51;6.32;;;1.75;;
77544;SDS011;66672;50.328;7.610;2023-05-17T12:33:17;8.02;;;1.90;;
77544;SDS011;66672;50.328;7.610;2023-05-17T12:35:42;10.00;;;2.22;;
77544;SDS011;66672;50.328;7.610;2023-05-17T12:38:07;6.68;;;2.17;;
77544;SDS011;66672;50.328;7.610;2023-05-17T12:40:33;6.45;;;2.00;;
77544;SDS011;66672;50.328;7.610;2023-05-17T12:43:04;3.67;;;1.40;;
77544;SDS011;66672;50.328;7.610;2023-05-17T12:45:29;5.25;;;1.48;;
77544;SDS011;66672;50.328;7.610;2023-05-17T12:47:54;4.68;;;1.50;;
77544;SDS011;66672;50.328;7.610;2023-05-17T12:50:29;8.90;;;1.90;;
77544;SDS011;66672;50.328;7.610;2023-05-17T12:52:54;6.88;;;1.95;;
77544;SDS011;66672;50.328;7.610;2023-05-17T12:55:20;5.55;;;1.85;;
77544;SDS011;66672;50.328;7.610;2023-05-17T12:57:49;7.97;;;2.05;;
77544;SDS011;66672;50.328;7.610;2023-05-17T13:00:14;9.00;;;1.90;;
77544;SDS011;66672;50.328;7.610;2023-05-17T13:02:40;7.45;;;2.13;;
77544;SDS011;66672;50.328;7.610;2023-05-17T13:05:12;7.65;;;2.15;;
77544;SDS011;66672;50.328;7.610;2023-05-17T13:07:37;5.13;;;2.00;;
77544;SDS011;66672;50.328;7.610;2023-05-17T13:10:03;7.07;;;1.85;;
77544;SDS011;66672;50.328;7.610;2023-05-17T13:12:28;7.63;;;1.92;;
77544;SDS011;66672;50.328;7.610;2023-05-17T13:14:53;5.18;;;1.63;;
77544;SDS011;66672;50.328;7.610;2023-05-17T13:17:25;6.20;;;1.77;;
77544;SDS011;66672;50.328;7.610;2023-05-17T13:19:51;5.90;;;1.60;;
77544;SDS011;66672;50.328;7.610;2023-05-17T13:22:16;6.35;;;1.70;;
77544;SDS011;66672;50.328;7.610;2023-05-17T13:24:42;6.22;;;1.40;;
77544;SDS011;66672;50.328;7.610;2023-05-17T13:27:08;7.45;;;1.23;;
77544;SDS011;66672;50.328;7.610;2023-05-17T13:29:34;5.68;;;1.60;;
77544;SDS011;66672;50.328;7.610;2023-05-17T13:32:00;6.38;;;1.50;;
77544;SDS011;66672;50.328;7.610;2023-05-17T13:34:25;6.45;;;1.50;;
77544;SDS011;66672;50.328;7.610;2023-05-17T13:36:51;6.30;;;1.58;;
77544;SDS011;66672;50.328;7.610;2023-05-17T13:39:16;6.07;;;1.45;;
77544;SDS011;66672;50.328;7.610;2023-05-17T13:41:41;6.57;;;1.60;;
77544;SDS011;66672;50.328;7.610;2023-05-17T13:44:07;6.28;;;1.60;;
77544;SDS011;66672;50.328;7.610;2023-05-17T13:46:32;6.05;;;1.48;;
77544;SDS011;66672;50.328;7.610;2023-05-17T13:48:59;4.95;;;1.63;;
77544;SDS011;66672;50.328;7.610;2023-05-17T13:51:24;9.07;;;1.65;;
77544;SDS011;66672;50.328;7.610;2023-05-17T13:53:49;8.00;;;1.83;;
77544;SDS011;66672;50.328;7.610;2023-05-17T13:56:15;7.35;;;1.85;;
77544;SDS011;66672;50.328;7.610;2023-05-17T13:58:40;7.82;;;1.75;;
77544;SDS011;66672;50.328;7.610;2023-05-17T14:01:05;7.28;;;1.70;;
77544;SDS011;66672;50.328;7.610;2023-05-17T14:03:31;6.57;;;1.50;;
77544;SDS011;66672;50.328;7.610;2023-05-17T14:05:56;6.30;;;1.40;;
77544;SDS011;66672;50.328;7.610;2023-05-17T14:08:22;6.05;;;1.85;;
77544;SDS011;66672;50.328;7.610;2023-05-17T14:10:47;5.15;;;1.63;;
77544;SDS011;66672;50.328;7.610;2023-05-17T14:13:12;8.40;;;1.77;;
77544;SDS011;66672;50.328;7.610;2023-05-17T14:15:38;5.10;;;1.30;;
77544;SDS011;66672;50.328;7.610;2023-05-17T14:18:03;8.07;;;1.95;;
77544;SDS011;66672;50.328;7.610;2023-05-17T14:20:29;4.93;;;1.33;;
77544;SDS011;66672;50.328;7.610;2023-05-17T14:22:54;7.28;;;1.70;;
77544;SDS011;66672;50.328;7.610;2023-05-17T14:25:19;4.75;;;1.40;;
77544;SDS011;66672;50.328;7.610;2023-05-17T14:27:45;6.40;;;1.83;;
77544;SDS011;66672;50.328;7.610;2023-05-17T14:30:11;7.65;;;1.63;;
77544;SDS011;66672;50.328;7.610;2023-05-17T14:32:36;6.75;;;2.00;;
77544;SDS011;66672;50.328;7.610;2023-05-17T14:35:03;6.72;;;1.40;;
77544;SDS011;66672;50.328;7.610;2023-05-17T14:37:28;5.85;;;1.65;;
77544;SDS011;66672;50.328;7.610;2023-05-17T14:39:53;5.97;;;1.50;;
77544;SDS011;66672;50.328;7.610;2023-05-17T14:42:18;4.97;;;1.33;;
77544;SDS011;66672;50.328;7.610;2023-05-17T14:44:44;7.85;;;1.67;;
77544;SDS011;66672;50.328;7.610;2023-05-17T14:47:09;9.70;;;1.73;;
77544;SDS011;66672;50.328;7.610;2023-05-17T14:49:34;3.90;;;1.30;;
77544;SDS011;66672;50.328;7.610;2023-05-17T14:51:59;5.93;;;1.25;;